Time;durP1;ratioP1;P1;durP2;ratioP2;P2;SDS_P1;SDS_P2;PMS_P1;PMS_P2;Temp;Humidity;BMP_temperature;BMP_pressure;BME280_temperature;BME280_humidity;BME280_pressure;Samples;Min_cycle;Max_cycle;Signal;HPM_P1;HPM_P2
2023/04/17 00:01:47;;;;;;;50.92;33.90;;;10.30;99.90;;;;;;5074227;28;20099;-67
2023/04/17 00:04:12;;;;;;;51.30;34.10;;;10.30;99.90;;;;;;5073798;28;20032;-67
2023/04/17 00:06:42;;;;;;;49.63;33.70;;;10.30;99.90;;;;;;5074420;28;20044;-67
2023/04/17 00:09:08;;;;;;;50.15;33.17;;;10.30;99.90;;;;;;5074397;28;20029;-67
2023/04/17 00:11:33;;;;;;;48.75;33.50;;;10.30;99.90;;;;;;5073954;28;20394;-67
2023/04/17 00:13:59;;;;;;;51.22;33.63;;;10.30;99.90;;;;;;5074359;28;20043;-67
2023/04/17 00:16:25;;;;;;;54.00;32.80;;;10.30;99.90;;;;;;5072919;28;20045;-67
2023/04/17 00:18:52;;;;;;;51.65;34.15;;;10.20;99.90;;;;;;5074315;28;20343;-67
2023/04/17 00:21:18;;;;;;;52.13;33.50;;;10.20;99.90;;;;;;5074244;28;20021;-67
2023/04/17 00:23:44;;;;;;;45.75;32.03;;;10.20;99.90;;;;;;5073860;28;20055;-67
2023/04/17 00:26:10;;;;;;;50.45;33.45;;;10.10;99.90;;;;;;5073815;28;20464;-67
2023/04/17 00:28:36;;;;;;;53.15;33.08;;;10.20;99.90;;;;;;5073859;28;20121;-67
2023/04/17 00:31:01;;;;;;;51.60;31.98;;;10.10;99.90;;;;;;5073623;28;20020;-67
2023/04/17 00:33:27;;;;;;;52.08;33.55;;;10.10;99.90;;;;;;5073919;28;20060;-67
2023/04/17 00:35:52;;;;;;;53.13;32.83;;;10.10;99.90;;;;;;5073325;28;20478;-67
2023/04/17 00:38:18;;;;;;;51.55;32.83;;;10.10;99.90;;;;;;5074120;28;20167;-67
2023/04/17 00:40:45;;;;;;;51.83;33.20;;;10.00;99.90;;;;;;5073076;28;20066;-67
2023/04/17 00:43:10;;;;;;;48.67;31.85;;;10.00;99.90;;;;;;5074390;28;20029;-67
2023/04/17 00:45:36;;;;;;;51.58;33.13;;;9.90;99.90;;;;;;5073842;28;20029;-67
2023/04/17 00:48:04;;;;;;;50.83;33.47;;;9.90;99.90;;;;;;5073668;28;20028;-67
2023/04/17 00:50:30;;;;;;;46.25;32.25;;;9.90;99.90;;;;;;5073603;28;20028;-67
2023/04/17 00:52:57;;;;;;;49.47;32.15;;;9.90;99.90;;;;;;5073993;28;20029;-67
2023/04/17 00:55:22;;;;;;;49.90;32.35;;;9.90;99.90;;;;;;5073968;28;20032;-67
2023/04/17 00:57:48;;;;;;;52.15;33.75;;;9.80;99.90;;;;;;5073585;28;20054;-67
2023/04/17 01:00:16;;;;;;;49.65;33.75;;;9.80;99.90;;;;;;5073504;28;20031;-67
2023/04/17 01:02:42;;;;;;;52.05;35.90;;;9.80;99.90;;;;;;5073388;28;20462;-67
2023/04/17 01:05:08;;;;;;;52.97;35.50;;;9.80;99.90;;;;;;5073681;28;20032;-67
2023/04/17 01:07:35;;;;;;;52.80;34.03;;;9.80;99.90;;;;;;5073407;28;20033;-67
2023/04/17 01:10:01;;;;;;;51.35;33.55;;;9.70;99.90;;;;;;5073776;28;20466;-67
2023/04/17 01:12:26;;;;;;;52.00;32.88;;;9.70;99.90;;;;;;5073601;28;20035;-67
2023/04/17 01:14:53;;;;;;;50.33;32.20;;;9.60;99.90;;;;;;5073927;28;20041;-67
2023/04/17 01:17:19;;;;;;;58.28;34.03;;;9.60;99.90;;;;;;5077078;28;20382;-67
2023/04/17 01:19:45;;;;;;;51.15;32.88;;;9.60;99.90;;;;;;5076965;28;20021;-67
2023/04/17 01:22:11;;;;;;;49.90;32.92;;;9.60;99.90;;;;;;5077302;28;20027;-68
2023/04/17 01:24:37;;;;;;;54.78;33.33;;;9.60;99.90;;;;;;5077335;28;20485;-67
2023/04/17 01:27:03;;;;;;;51.67;32.47;;;9.60;99.90;;;;;;5077329;28;20029;-67
2023/04/17 01:29:29;;;;;;;56.50;32.72;;;9.60;99.90;;;;;;5076766;28;20494;-67
2023/04/17 01:31:55;;;;;;;46.88;31.83;;;9.50;99.90;;;;;;5077147;28;20026;-67
2023/04/17 01:34:20;;;;;;;49.15;32.60;;;9.60;99.90;;;;;;5076926;28;20525;-67
2023/04/17 01:36:46;;;;;;;46.90;31.02;;;9.50;99.90;;;;;;5076918;28;20032;-67
2023/04/17 01:39:12;;;;;;;51.33;33.47;;;9.50;99.90;;;;;;5076699;28;20024;-67
2023/04/17 01:41:37;;;;;;;51.92;33.10;;;9.50;99.90;;;;;;5077058;28;20024;-67
2023/04/17 01:44:03;;;;;;;47.83;32.30;;;9.50;99.90;;;;;;5076586;28;20025;-67
2023/04/17 01:46:28;;;;;;;49.45;32.33;;;9.50;99.90;;;;;;5076635;28;20029;-67
2023/04/17 01:48:54;;;;;;;50.58;32.97;;;9.50;99.90;;;;;;5075869;28;20025;-67
2023/04/17 01:51:19;;;;;;;49.22;33.00;;;9.50;99.90;;;;;;5076865;28;20048;-67
2023/04/17 01:53:45;;;;;;;47.42;32.42;;;9.50;99.90;;;;;;5076509;28;20028;-67
2023/04/17 01:56:12;;;;;;;57.47;34.17;;;9.50;99.90;;;;;;5076064;28;20032;-67
2023/04/17 01:58:38;;;;;;;50.30;33.28;;;9.50;99.90;;;;;;5076256;28;20394;-67
2023/04/17 02:01:04;;;;;;;53.17;34.08;;;9.50;99.90;;;;;;5076339;28;20034;-67
2023/04/17 02:03:30;;;;;;;54.58;33.50;;;9.40;99.90;;;;;;5076712;28;20059;-67
2023/04/17 02:05:56;;;;;;;52.88;34.58;;;9.40;99.90;;;;;;5075697;28;20032;-67
2023/04/17 02:08:22;;;;;;;53.45;33.97;;;9.40;99.90;;;;;;5076082;28;20033;-67
2023/04/17 02:10:47;;;;;;;58.22;35.97;;;9.50;99.90;;;;;;5075836;28;20378;-67
2023/04/17 02:13:13;;;;;;;56.13;37.00;;;9.50;99.90;;;;;;5076519;28;20032;-67
2023/04/17 02:15:39;;;;;;;64.30;37.00;;;9.40;99.90;;;;;;5075599;28;20076;-67
2023/04/17 02:18:05;;;;;;;62.17;37.10;;;9.40;99.90;;;;;;5075646;28;20024;-67
2023/04/17 02:20:31;;;;;;;54.70;37.08;;;9.50;99.90;;;;;;5075715;28;20025;-67
2023/04/17 02:22:59;;;;;;;60.90;38.80;;;9.40;99.90;;;;;;5076278;28;20025;-67
2023/04/17 02:25:25;;;;;;;59.58;37.38;;;9.40;99.90;;;;;;5075116;28;20069;-67
2023/04/17 02:27:52;;;;;;;65.60;38.70;;;9.40;99.90;;;;;;5076004;28;20025;-67
2023/04/17 02:30:17;;;;;;;62.13;38.45;;;9.40;99.90;;;;;;5076193;28;20040;-67
2023/04/17 02:32:44;;;;;;;62.50;38.63;;;9.40;99.90;;;;;;5075666;28;20390;-67
2023/04/17 02:35:09;;;;;;;62.72;39.75;;;9.40;99.90;;;;;;5075823;28;20523;-67
2023/04/17 02:37:36;;;;;;;57.78;37.30;;;9.30;99.90;;;;;;5075760;28;20064;-67
2023/04/17 02:40:05;;;;;;;65.65;40.25;;;9.30;99.90;;;;;;5075408;28;20028;-67
2023/04/17 02:42:31;;;;;;;62.03;40.03;;;9.40;99.90;;;;;;5075983;28;20115;-67
2023/04/17 02:44:57;;;;;;;64.70;39.58;;;9.30;99.90;;;;;;5075471;28;20593;-67
2023/04/17 02:47:22;;;;;;;63.40;37.90;;;9.40;99.90;;;;;;5075312;28;20033;-67
2023/04/17 02:49:48;;;;;;;61.38;38.00;;;9.30;99.90;;;;;;5075602;28;20051;-67
2023/04/17 02:52:13;;;;;;;62.42;38.58;;;9.30;99.90;;;;;;5075172;28;20029;-67
2023/04/17 02:54:39;;;;;;;63.58;37.63;;;9.30;99.90;;;;;;5075121;28;20036;-67
2023/04/17 02:57:04;;;;;;;64.43;38.13;;;9.40;99.90;;;;;;5074789;28;20058;-67
2023/04/17 02:59:30;;;;;;;60.00;37.60;;;9.30;99.90;;;;;;5075266;28;20111;-67
2023/04/17 03:01:58;;;;;;;63.83;38.83;;;9.30;99.90;;;;;;5075541;28;20024;-67
2023/04/17 03:04:26;;;;;;;62.35;38.80;;;9.30;99.90;;;;;;5075035;28;20116;-67
2023/04/17 03:06:52;;;;;;;60.45;38.88;;;9.30;99.90;;;;;;5075186;28;20086;-67
2023/04/17 03:09:21;;;;;;;65.20;39.47;;;9.30;99.90;;;;;;5074302;28;20029;-66
2023/04/17 03:11:47;;;;;;;65.78;39.50;;;9.30;99.90;;;;;;5074994;28;20086;-67
2023/04/17 03:14:13;;;;;;;59.40;37.22;;;9.30;99.90;;;;;;5075367;28;20028;-67
2023/04/17 03:16:39;;;;;;;62.25;37.75;;;9.30;99.90;;;;;;5073986;28;20060;-67
2023/04/17 03:19:04;;;;;;;61.47;38.30;;;9.30;99.90;;;;;;5074676;28;20025;-67
2023/04/17 03:21:30;;;;;;;59.03;37.60;;;9.20;99.90;;;;;;5074892;28;20028;-67
2023/04/17 03:23:56;;;;;;;61.58;38.88;;;9.20;99.90;;;;;;5075048;28;20024;-67
2023/04/17 03:26:21;;;;;;;60.70;38.97;;;9.20;99.90;;;;;;5074333;28;20028;-67
2023/04/17 03:28:47;;;;;;;62.88;39.15;;;9.20;99.90;;;;;;5074978;28;20162;-67
2023/04/17 03:31:13;;;;;;;65.18;39.08;;;9.20;99.90;;;;;;5074973;28;20036;-67
2023/04/17 03:33:38;;;;;;;60.30;38.35;;;9.20;99.90;;;;;;5074266;28;20105;-67
2023/04/17 03:36:04;;;;;;;66.50;39.50;;;9.20;99.90;;;;;;5074764;28;20025;-67
2023/04/17 03:38:30;;;;;;;62.80;38.97;;;9.20;99.90;;;;;;5073529;28;20035;-67
2023/04/17 03:40:56;;;;;;;63.30;39.42;;;9.10;99.90;;;;;;5074801;28;20373;-67
2023/04/17 03:43:21;;;;;;;62.72;39.30;;;9.10;99.90;;;;;;5074801;28;20028;-67
2023/04/17 03:45:47;;;;;;;62.38;38.83;;;9.10;99.90;;;;;;5074426;28;20108;-67
2023/04/17 03:48:12;;;;;;;62.50;40.42;;;9.10;99.90;;;;;;5074351;28;20470;-67
2023/04/17 03:50:38;;;;;;;63.15;39.72;;;9.10;99.90;;;;;;5074556;28;20086;-67
2023/04/17 03:53:04;;;;;;;61.63;39.15;;;9.00;99.90;;;;;;5073514;28;20549;-66
2023/04/17 03:55:29;;;;;;;61.53;39.60;;;9.00;99.90;;;;;;5074378;28;20028;-67
2023/04/17 03:57:55;;;;;;;67.75;39.45;;;9.00;99.90;;;;;;5073684;28;20100;-67
2023/04/17 04:00:21;;;;;;;60.15;39.40;;;9.10;99.90;;;;;;5073944;28;20032;-67
2023/04/17 04:02:47;;;;;;;62.28;39.22;;;9.00;99.90;;;;;;5074460;28;20021;-67
2023/04/17 04:05:12;;;;;;;64.63;40.17;;;9.00;99.90;;;;;;5073434;28;20490;-66
2023/04/17 04:07:38;;;;;;;66.80;38.78;;;9.00;99.90;;;;;;5074155;28;20028;-67
2023/04/17 04:10:04;;;;;;;64.72;40.60;;;8.90;99.90;;;;;;5073921;28;20035;-67
2023/04/17 04:12:30;;;;;;;63.78;40.42;;;9.00;99.90;;;;;;5074023;28;20448;-67
2023/04/17 04:14:55;;;;;;;64.60;41.13;;;8.90;99.90;;;;;;5073985;28;20048;-67
2023/04/17 04:17:21;;;;;;;63.45;38.85;;;8.90;99.90;;;;;;5074031;28;20029;-67
2023/04/17 04:19:46;;;;;;;61.90;40.83;;;8.90;99.90;;;;;;5073695;28;20025;-67
2023/04/17 04:22:12;;;;;;;64.50;39.25;;;8.90;99.90;;;;;;5073416;28;20103;-67
2023/04/17 04:24:39;;;;;;;65.53;40.17;;;8.90;99.90;;;;;;5073673;28;20033;-66
2023/04/17 04:27:05;;;;;;;65.45;39.88;;;8.90;99.90;;;;;;5074203;28;20454;-66
2023/04/17 04:29:31;;;;;;;63.30;38.72;;;8.90;99.90;;;;;;5073818;28;20032;-67
2023/04/17 04:31:57;;;;;;;64.00;39.67;;;8.90;99.90;;;;;;5074141;28;20032;-67
2023/04/17 04:34:24;;;;;;;59.38;39.13;;;8.90;99.90;;;;;;5073596;28;20032;-67
2023/04/17 04:36:50;;;;;;;61.65;38.95;;;8.90;99.90;;;;;;5073585;28;20060;-66
2023/04/17 04:39:20;;;;;;;63.20;39.28;;;8.90;99.90;;;;;;5074062;28;20028;-67
2023/04/17 04:41:46;;;;;;;60.55;38.92;;;8.90;99.90;;;;;;5073582;28;20035;-67
2023/04/17 04:44:12;;;;;;;62.00;39.03;;;8.90;99.90;;;;;;5073440;28;20021;-67
2023/04/17 04:46:37;;;;;;;65.25;39.83;;;8.90;99.90;;;;;;5073523;28;20044;-67
2023/04/17 04:49:03;;;;;;;64.85;38.38;;;8.90;99.90;;;;;;5075334;28;20028;-67
2023/04/17 04:51:30;;;;;;;61.13;39.45;;;8.80;99.90;;;;;;5077651;28;20347;-67
2023/04/17 04:53:56;;;;;;;66.10;40.63;;;8.90;99.90;;;;;;5077840;28;20024;-67
2023/04/17 04:56:21;;;;;;;60.13;38.90;;;8.90;99.90;;;;;;5077227;28;20367;-67
2023/04/17 04:58:47;;;;;;;59.25;37.88;;;8.90;99.90;;;;;;5077835;28;20054;-67
2023/04/17 05:01:12;;;;;;;59.30;38.45;;;8.90;99.90;;;;;;5077749;28;20115;-67
2023/04/17 05:03:39;;;;;;;56.88;36.85;;;8.80;99.90;;;;;;5077230;28;20423;-67
2023/04/17 05:06:05;;;;;;;69.05;38.80;;;8.90;99.90;;;;;;5077663;28;20031;-67
2023/04/17 05:08:31;;;;;;;64.38;38.65;;;8.80;99.90;;;;;;5077574;28;20033;-68
2023/04/17 05:10:56;;;;;;;65.70;39.38;;;8.90;99.90;;;;;;5077359;28;20066;-67
2023/04/17 05:13:22;;;;;;;56.55;38.33;;;8.90;99.90;;;;;;5077586;28;20501;-67
2023/04/17 05:15:47;;;;;;;59.97;38.72;;;8.90;99.90;;;;;;5076718;28;20044;-67
2023/04/17 05:18:13;;;;;;;63.05;38.75;;;8.90;99.90;;;;;;5076802;28;20123;-67
2023/04/17 05:20:39;;;;;;;58.78;37.42;;;8.90;99.90;;;;;;5077137;28;20359;-67
2023/04/17 05:23:04;;;;;;;58.53;36.60;;;8.80;99.90;;;;;;5076799;28;20028;-68
2023/04/17 05:25:30;;;;;;;59.28;36.10;;;8.90;99.90;;;;;;5076786;28;20039;-67
2023/04/17 05:27:55;;;;;;;61.00;37.60;;;8.90;99.90;;;;;;5076307;28;20508;-67
2023/04/17 05:30:21;;;;;;;63.78;37.05;;;8.90;99.90;;;;;;5077025;28;20033;-67
2023/04/17 05:32:47;;;;;;;59.33;37.03;;;8.90;99.90;;;;;;5077059;28;20021;-67
2023/04/17 05:35:12;;;;;;;55.50;34.88;;;9.00;99.90;;;;;;5076957;28;20021;-67
2023/04/17 05:37:38;;;;;;;55.13;36.92;;;8.90;99.90;;;;;;5076419;28;20363;-67
2023/04/17 05:40:05;;;;;;;56.17;35.38;;;9.00;99.90;;;;;;5076840;28;20465;-67
2023/04/17 05:42:32;;;;;;;53.70;34.90;;;9.00;99.90;;;;;;5077136;28;20470;-67
2023/04/17 05:44:58;;;;;;;55.30;35.85;;;9.00;99.90;;;;;;5077041;28;20028;-67
2023/04/17 05:47:23;;;;;;;56.58;36.30;;;9.00;99.90;;;;;;5076001;28;20082;-67
2023/04/17 05:49:51;;;;;;;61.08;36.35;;;9.00;99.90;;;;;;5076984;28;20119;-68
2023/04/17 05:52:17;;;;;;;56.90;36.42;;;9.00;99.90;;;;;;5076030;28;20509;-67
2023/04/17 05:54:42;;;;;;;56.58;36.00;;;9.00;99.90;;;;;;5076716;28;20033;-67
2023/04/17 05:57:08;;;;;;;54.83;35.45;;;9.00;99.90;;;;;;5076139;28;20498;-67
2023/04/17 05:59:33;;;;;;;58.00;36.00;;;9.10;99.90;;;;;;5076678;28;20441;-67
2023/04/17 06:01:59;;;;;;;56.25;35.63;;;9.10;99.90;;;;;;5075314;28;20024;-68
2023/04/17 06:04:25;;;;;;;54.65;36.40;;;9.20;99.90;;;;;;5076085;28;20028;-67
2023/04/17 06:06:50;;;;;;;56.13;34.88;;;9.20;99.90;;;;;;5075156;28;20047;-67
2023/04/17 06:09:16;;;;;;;54.50;35.40;;;9.20;99.90;;;;;;5073467;28;20503;-68
2023/04/17 06:11:41;;;;;;;58.35;36.83;;;9.20;99.90;;;;;;5076024;28;20115;-68
2023/04/17 06:14:07;;;;;;;55.55;35.67;;;9.30;99.90;;;;;;5072905;28;20411;-67
2023/04/17 06:16:32;;;;;;;59.17;35.17;;;9.40;99.90;;;;;;5074055;28;20052;-67
2023/04/17 06:18:58;;;;;;;57.72;34.28;;;9.30;99.90;;;;;;5075676;28;20103;-67
2023/04/17 06:21:24;;;;;;;58.25;34.55;;;9.30;99.90;;;;;;5075577;28;20123;-67
2023/04/17 06:23:50;;;;;;;55.28;35.00;;;9.30;99.90;;;;;;5074926;28;20489;-65
2023/04/17 06:26:17;;;;;;;57.28;36.30;;;9.40;99.90;;;;;;5055082;28;20033;-66
2023/04/17 06:28:42;;;;;;;55.22;35.08;;;9.40;99.90;;;;;;5055086;28;20474;-65
2023/04/17 06:31:08;;;;;;;61.08;36.70;;;9.50;99.90;;;;;;5055214;28;20120;-65
2023/04/17 06:33:33;;;;;;;54.38;34.78;;;9.40;99.90;;;;;;5058634;28;20021;-66
2023/04/17 06:35:59;;;;;;;55.78;36.72;;;9.50;99.90;;;;;;5076278;28;20032;-66
2023/04/17 06:38:24;;;;;;;55.72;36.60;;;9.50;99.90;;;;;;5075163;28;20016;-65
2023/04/17 06:40:50;;;;;;;53.65;34.72;;;9.50;99.90;;;;;;5070879;28;20031;-65
2023/04/17 06:43:15;;;;;;;54.92;35.28;;;9.50;99.90;;;;;;5073997;28;20112;-65
2023/04/17 06:45:41;;;;;;;55.50;36.25;;;9.50;99.90;;;;;;5071068;28;20018;-63
2023/04/17 06:48:07;;;;;;;61.88;35.22;;;9.60;99.90;;;;;;5074164;28;20043;-64
2023/04/17 06:50:33;;;;;;;54.70;34.40;;;9.60;99.90;;;;;;5074668;28;20032;-64
2023/04/17 06:52:58;;;;;;;49.97;33.72;;;9.70;99.90;;;;;;5072002;28;20067;-64
2023/04/17 06:55:26;;;;;;;59.45;36.20;;;9.70;99.90;;;;;;5061217;28;20417;-65
2023/04/17 06:57:51;;;;;;;56.22;35.00;;;9.80;99.90;;;;;;5074095;28;20039;-65
2023/04/17 07:00:17;;;;;;;58.45;37.53;;;9.70;99.90;;;;;;5072596;28;20201;-64
2023/04/17 07:02:43;;;;;;;53.65;34.63;;;9.80;99.90;;;;;;5067727;28;20109;-63
2023/04/17 07:05:09;;;;;;;56.47;35.42;;;10.00;98.70;;;;;;5068606;28;20484;-63
2023/04/17 07:07:35;;;;;;;57.80;34.83;;;10.00;97.60;;;;;;5061022;28;20036;-64
2023/04/17 07:10:02;;;;;;;58.80;34.47;;;10.20;94.80;;;;;;5060639;28;20040;-64
2023/04/17 07:12:27;;;;;;;53.97;34.17;;;10.10;90.80;;;;;;5061354;28;20029;-68
2023/04/17 07:14:53;;;;;;;50.65;33.75;;;10.10;87.10;;;;;;5073271;28;20072;-65
2023/04/17 07:17:18;;;;;;;51.38;32.63;;;10.20;82.60;;;;;;5070534;28;20040;-65
2023/04/17 07:19:44;;;;;;;53.20;32.63;;;10.40;72.10;;;;;;5061628;28;20033;-65
2023/04/17 07:22:10;;;;;;;46.83;30.27;;;10.40;65.20;;;;;;5070170;28;20486;-65
2023/04/17 07:24:35;;;;;;;45.75;29.90;;;10.80;48.90;;;;;;5069069;28;20028;-66
2023/04/17 07:27:02;;;;;;;47.50;30.58;;;11.10;13.00;;;;;;5060411;28;20029;-66
2023/04/17 07:29:28;;;;;;;44.75;27.23;;;11.20;6.40;;;;;;5063197;28;20766;-64
2023/04/17 07:31:54;;;;;;;42.88;26.58;;;11.40;1.00;;;;;;5072173;28;20032;-64
2023/04/17 07:34:20;;;;;;;40.97;28.05;;;11.40;1.00;;;;;;5072329;28;20036;-66
2023/04/17 07:36:46;;;;;;;40.78;26.88;;;11.80;1.00;;;;;;5074487;28;20462;-66
2023/04/17 07:39:12;;;;;;;40.92;26.67;;;12.30;1.00;;;;;;5073326;28;20024;-65
2023/04/17 07:41:37;;;;;;;38.53;24.85;;;12.20;1.00;;;;;;5073937;28;20478;-64
2023/04/17 07:44:04;;;;;;;40.00;26.80;;;12.10;1.00;;;;;;5070671;28;20031;-65
2023/04/17 07:46:30;;;;;;;42.90;25.13;;;12.30;1.00;;;;;;5071764;28;20037;-65
2023/04/17 07:48:57;;;;;;;45.60;26.90;;;12.80;1.00;;;;;;5072300;28;20115;-65
2023/04/17 07:51:22;;;;;;;37.97;25.90;;;13.20;1.00;;;;;;5072769;28;20553;-64
2023/04/17 07:53:48;;;;;;;38.88;24.58;;;13.30;99.90;;;;;;5073153;28;20114;-65
2023/04/17 07:56:13;;;;;;;39.95;24.50;;;13.60;99.90;;;;;;5073280;28;20077;-65
2023/04/17 07:58:39;;;;;;;36.05;23.80;;;13.80;99.90;;;;;;5063573;28;20037;-65
2023/04/17 08:01:04;;;;;;;40.30;23.95;;;13.80;93.20;;;;;;5053856;28;20029;-64
2023/04/17 08:03:30;;;;;;;35.47;23.45;;;13.70;99.90;;;;;;5058158;28;20098;-64
2023/04/17 08:05:56;;;;;;;39.42;23.23;;;13.30;99.90;;;;;;5070394;28;20028;-65
2023/04/17 08:08:22;;;;;;;39.50;21.60;;;13.30;1.00;;;;;;5072529;28;20058;-65
2023/04/17 08:10:48;;;;;;;33.03;20.27;;;13.30;99.90;;;;;;5073495;28;20070;-65
2023/04/17 08:13:14;;;;;;;34.60;21.70;;;13.50;99.90;;;;;;5062290;28;20035;-66
2023/04/17 08:15:40;;;;;;;42.05;23.90;;;13.30;99.90;;;;;;5059157;28;20411;-65
2023/04/17 08:18:06;;;;;;;38.13;22.83;;;13.30;99.90;;;;;;5053908;28;20083;-65
2023/04/17 08:20:32;;;;;;;34.03;20.90;;;13.60;1.00;;;;;;5053770;28;20052;-66
2023/04/17 08:22:58;;;;;;;35.13;23.15;;;13.80;99.90;;;;;;5063694;28;20059;-68
2023/04/17 08:25:24;;;;;;;34.83;21.88;;;13.90;99.90;;;;;;5058565;28;20025;-65
2023/04/17 08:27:50;;;;;;;29.45;20.77;;;14.50;99.90;;;;;;5039611;28;20035;-65
2023/04/17 08:30:16;;;;;;;32.42;20.58;;;14.40;25.00;;;;;;5058649;28;20063;-65
2023/04/17 08:32:44;;;;;;;32.38;20.67;;;13.50;99.90;;;;;;5062337;28;20119;-66
2023/04/17 08:35:11;;;;;;;34.17;22.23;;;13.30;1.00;;;;;;5067492;28;20028;-65
2023/04/17 08:37:37;;;;;;;34.33;21.10;;;13.40;1.00;;;;;;5077572;28;20037;-67
2023/04/17 08:40:07;;;;;;;33.53;22.48;;;13.60;99.90;;;;;;5069130;28;20059;-68
2023/04/17 08:42:36;;;;;;;31.60;20.63;;;13.70;99.90;;;;;;5074148;28;20027;-68
2023/04/17 08:45:05;;;;;;;34.25;20.52;;;14.00;99.90;;;;;;5072776;28;20511;-67
2023/04/17 08:47:33;;;;;;;32.03;20.20;;;13.40;99.90;;;;;;5067157;28;20033;-67
2023/04/17 08:50:10;;;;;;;31.45;20.23;;;13.80;99.90;;;;;;5073095;28;20512;-66
2023/04/17 08:52:41;;;;;;;27.90;18.48;;;14.10;99.90;;;;;;5072163;28;20114;-68
2023/04/17 08:55:09;;;;;;;25.17;18.23;;;14.20;79.20;;;;;;5068989;28;20167;-67
2023/04/17 08:57:51;;;;;;;31.25;20.80;;;14.70;99.90;;;;;;5070826;28;20033;-67
2023/04/17 09:00:30;;;;;;;30.17;19.95;;;15.00;99.90;;;;;;5073497;28;20501;-68
2023/04/17 09:02:57;;;;;;;31.85;20.08;;;;;;;;;;5080319;28;20024;-68
2023/04/17 09:05:24;;;;;;;29.80;20.38;;;;;;;;;;5072380;28;20028;-69
2023/04/17 09:07:57;;;;;;;24.80;18.45;;;;;;;;;;5072817;28;20067;-66
2023/04/17 09:10:34;;;;;;;28.70;20.55;;;15.00;88.50;;;;;;5071923;28;20512;-66
2023/04/17 09:13:00;;;;;;;27.52;20.70;;;14.20;99.90;;;;;;5060842;28;20059;-69
2023/04/17 09:15:26;;;;;;;21.73;15.13;;;15.20;99.90;;;;;;5064630;28;20076;-68
2023/04/17 09:17:51;;;;;;;20.30;14.20;;;;;;;;;;5068502;28;20050;-69
2023/04/17 09:20:17;;;;;;;17.08;12.85;;;16.30;99.90;;;;;;5073420;28;20477;-68
2023/04/17 09:22:43;;;;;;;20.20;13.63;;;16.10;1.00;;;;;;5089888;28;20029;-68
2023/04/17 09:25:18;;;;;;;17.83;14.18;;;15.90;99.90;;;;;;5074377;28;20028;-68
2023/04/17 09:27:44;;;;;;;21.67;12.88;;;15.20;1.00;;;;;;5069538;28;20052;-67
2023/04/17 09:30:12;;;;;;;15.27;12.52;;;15.30;1.00;;;;;;5067525;28;20431;-68
2023/04/17 09:32:39;;;;;;;15.05;13.45;;;14.80;1.00;;;;;;5068837;28;20036;-64
2023/04/17 09:35:05;;;;;;;17.27;12.93;;;15.20;99.90;;;;;;5070484;28;20024;-67
2023/04/17 09:37:48;;;;;;;19.17;14.02;;;15.50;99.70;;;;;;5074174;28;20029;-68
2023/04/17 09:40:14;;;;;;;17.95;14.18;;;15.90;1.00;;;;;;5065459;28;20021;-67
2023/04/17 09:42:53;;;;;;;17.70;14.18;;;15.70;1.00;;;;;;5065413;28;20024;-67
2023/04/17 09:45:21;;;;;;;21.92;14.02;;;15.80;1.00;;;;;;5075787;28;20028;-66
2023/04/17 09:47:47;;;;;;;19.30;13.63;;;15.70;99.90;;;;;;5074806;28;20036;-67
2023/04/17 09:50:17;;;;;;;16.70;13.32;;;15.40;1.00;;;;;;5075787;28;20546;-68
2023/04/17 09:52:43;;;;;;;18.27;14.13;;;15.60;1.00;;;;;;5074870;28;20035;-68
2023/04/17 09:55:10;;;;;;;21.58;14.50;;;15.20;1.00;;;;;;5068129;28;20105;-69
2023/04/17 09:57:37;;;;;;;19.80;13.50;;;15.10;99.90;;;;;;5075507;28;20025;-67
2023/04/17 10:00:05;;;;;;;16.95;12.68;;;15.70;1.00;;;;;;5074364;28;20025;-66
2023/04/17 10:02:32;;;;;;;18.08;13.55;;;15.80;99.90;;;;;;5071787;28;20063;-68
2023/04/17 10:04:58;;;;;;;17.08;13.60;;;16.10;99.90;;;;;;5062780;28;20483;-63
2023/04/17 10:07:24;;;;;;;17.50;13.20;;;15.30;99.90;;;;;;5069922;28;20436;-67
2023/04/17 10:09:50;;;;;;;18.42;13.25;;;14.50;99.90;;;;;;5082414;28;20078;-68
2023/04/17 10:12:17;;;;;;;19.13;14.20;;;14.70;99.90;;;;;;5073552;28;20024;-68
2023/04/17 10:14:47;;;;;;;20.58;14.45;;;15.10;1.00;;;;;;5075022;28;20044;-67
2023/04/17 10:17:30;;;;;;;19.15;14.10;;;;;;;;;;5074229;28;20037;-68
2023/04/17 10:19:59;;;;;;;20.30;14.27;;;;;;;;;;5071234;28;20041;-69
2023/04/17 10:25:16;;;;;;;19.20;14.23;;;14.90;99.90;;;;;;5107350;27;20140;-67
2023/04/17 10:27:44;;;;;;;17.67;13.77;;;15.90;99.90;;;;;;5085786;28;20032;-68
2023/04/17 10:30:12;;;;;;;19.92;14.10;;;16.20;70.00;;;;;;5067568;28;20635;-68
2023/04/17 10:32:41;;;;;;;21.67;13.77;;;16.20;1.00;;;;;;5062946;28;20025;-67
2023/04/17 10:38:02;;;;;;;22.42;14.57;;;16.00;99.90;;;;;;5059390;28;20819;-69
2023/04/17 10:40:30;;;;;;;20.30;14.50;;;16.10;99.90;;;;;;5049379;28;20040;-68
2023/04/17 10:43:21;;;;;;;23.40;15.52;;;16.30;99.90;;;;;;5049432;28;20048;-68
2023/04/17 10:48:51;;;;;;;19.70;13.65;;;;;;;;;;5110453;27;20408;-66
2023/04/17 10:51:38;;;;;;;16.73;13.52;;;17.40;1.00;;;;;;5098548;28;20529;-66
2023/04/17 10:54:05;;;;;;;21.23;13.95;;;17.80;99.90;;;;;;5089511;28;20111;-66
2023/04/17 10:56:40;;;;;;;18.08;14.15;;;17.20;99.90;;;;;;5096228;28;20509;-65
2023/04/17 10:59:08;;;;;;;20.98;14.20;;;17.10;99.90;;;;;;5090941;28;20540;-66
2023/04/17 11:04:32;;;;;;;18.20;12.32;;;17.10;99.90;;;;;;5041161;28;20406;-66
2023/04/17 11:06:58;;;;;;;16.55;11.57;;;17.00;1.00;;;;;;5041074;28;20434;-66
2023/04/17 11:09:26;;;;;;;18.88;13.57;;;16.90;1.00;;;;;;5052218;28;20063;-66
2023/04/17 11:11:53;;;;;;;21.08;13.13;;;17.10;99.90;;;;;;5054943;28;20029;-66
2023/04/17 11:14:21;;;;;;;24.23;14.38;;;17.50;99.90;;;;;;5057074;28;20568;-68
2023/04/17 11:16:48;;;;;;;19.13;13.50;;;17.60;99.90;;;;;;5049707;28;20033;-67
2023/04/17 11:19:20;;;;;;;17.40;12.30;;;17.50;99.90;;;;;;5043517;28;20071;-67
2023/04/17 11:21:48;;;;;;;19.98;13.45;;;17.30;99.90;;;;;;5049107;28;20056;-66
2023/04/17 11:24:30;;;;;;;18.60;13.30;;;17.20;99.90;;;;;;5051771;28;20435;-66
2023/04/17 11:26:58;;;;;;;16.75;12.93;;;17.10;99.90;;;;;;5043478;28;20017;-65
2023/04/17 11:29:25;;;;;;;19.90;13.77;;;16.50;99.90;;;;;;5046115;28;20030;-64
2023/04/17 11:31:52;;;;;;;18.75;13.23;;;16.50;99.90;;;;;;5026763;28;20021;-63
2023/04/17 11:34:18;;;;;;;19.17;13.40;;;16.90;99.90;;;;;;5056060;28;20029;-66
2023/04/17 11:36:53;;;;;;;20.50;12.57;;;17.20;99.90;;;;;;5046091;28;20490;-65
2023/04/17 11:39:20;;;;;;;20.48;12.55;;;17.80;99.90;;;;;;5044960;28;20025;-62
2023/04/17 11:41:45;;;;;;;21.80;13.93;;;17.20;99.90;;;;;;5046381;28;20494;-63
2023/04/17 11:44:12;;;;;;;20.33;12.18;;;17.00;99.90;;;;;;5053924;28;20037;-63
2023/04/17 11:46:38;;;;;;;19.17;12.55;;;17.20;99.90;;;;;;5051276;28;20025;-66
2023/04/17 11:49:04;;;;;;;18.40;12.48;;;17.40;99.90;;;;;;5055718;28;20035;-63
2023/04/17 11:51:30;;;;;;;19.65;12.50;;;17.30;99.90;;;;;;5052692;28;20099;-63
2023/04/17 11:53:56;;;;;;;18.08;12.50;;;16.70;99.90;;;;;;5052187;28;20025;-66
2023/04/17 11:56:27;;;;;;;24.58;14.10;;;16.80;99.90;;;;;;5043188;28;20040;-63
2023/04/17 11:58:55;;;;;;;20.65;13.38;;;17.00;99.90;;;;;;5049489;28;20128;-64
2023/04/17 12:01:24;;;;;;;21.73;13.07;;;17.10;99.90;;;;;;5049272;28;20529;-63
2023/04/17 12:03:51;;;;;;;19.40;12.88;;;17.20;99.90;;;;;;5046594;28;20413;-64
2023/04/17 12:06:17;;;;;;;20.38;12.55;;;17.40;99.90;;;;;;5046059;28;20099;-66
2023/04/17 12:08:45;;;;;;;18.60;12.93;;;17.20;99.90;;;;;;5049349;28;20029;-64
2023/04/17 12:11:16;;;;;;;17.92;12.40;;;17.70;99.90;;;;;;5048143;28;20395;-64
2023/04/17 12:13:41;;;;;;;16.80;11.82;;;17.80;99.90;;;;;;5040770;28;20029;-65
2023/04/17 12:16:07;;;;;;;21.27;12.70;;;17.40;99.90;;;;;;5034662;28;20033;-65
2023/04/17 12:18:32;;;;;;;20.83;12.88;;;17.20;99.90;;;;;;5026468;28;20033;-65
2023/04/17 12:20:58;;;;;;;18.00;13.18;;;17.40;99.90;;;;;;5033782;28;20403;-65
2023/04/17 12:23:23;;;;;;;18.17;13.48;;;17.00;99.90;;;;;;5034540;28;20037;-66
2023/04/17 12:25:49;;;;;;;22.98;12.82;;;16.60;99.90;;;;;;5035025;28;20105;-66
2023/04/17 12:28:14;;;;;;;17.23;13.07;;;16.70;99.90;;;;;;5034923;28;20095;-65
2023/04/17 12:30:41;;;;;;;19.92;13.40;;;16.30;99.90;;;;;;5033644;28;20032;-66
2023/04/17 12:33:07;;;;;;;19.40;13.35;;;16.10;99.90;;;;;;5035365;28;20025;-65
2023/04/17 12:35:32;;;;;;;18.85;13.07;;;16.10;99.90;;;;;;5035892;28;20033;-65
2023/04/17 12:37:58;;;;;;;18.05;11.60;;;16.20;99.90;;;;;;5033973;28;20060;-65
2023/04/17 12:40:24;;;;;;;16.92;12.93;;;16.20;99.90;;;;;;5038036;28;20021;-64
2023/04/17 12:42:49;;;;;;;16.60;12.38;;;16.10;99.90;;;;;;5035896;28;20360;-64
2023/04/17 12:45:16;;;;;;;16.42;13.02;;;16.40;99.90;;;;;;5016560;28;20026;-66